EGGW/LTN METAR and TAF weather

Enter ICAO airport designator
Station Type Date Time Source
EGGW METAR 2020/11/27 14:50 UTC NOAA

EGGW 271450Z AUTO 02005KT 2200 BR OVC001 03/03 Q1017


Station Type Date Time Source
EGGW Decoded METAR 2020/11/27 14:50 UTC NOAA

Luton Airport , United Kingdom (EGGW) 51-52N 000-22W
Nov 27, 2020 - 09:50 AM EST / 2020.11.27 1450 UTC
Wind: from the NNE (020 degrees) at 6 MPH (5 KT):0
Visibility: 1 mile(s):0
Sky conditions: overcast
Weather: mist
Temperature: 37 F (3 C)
Dew Point: 37 F (3 C)
Relative Humidity: 100%
Pressure (altimeter): 30.03 in. Hg (1017 hPa)
ob: EGGW 271450Z AUTO 02005KT 2200 BR OVC001 03/03 Q1017
cycle: 15

Station Type Date Time Source
EGGW TAF 2020/11/27 14:37 UTC NOAA

TAF
AMD EGGW 271431Z 2714/2812 02005KT 1200 BR BKN001
BECMG 2714/2716 9999 NSW BKN018
TEMPO 2716/2721 9000 BKN012
BECMG 2721/2724 BKN008
TEMPO 2721/2724 4000 RADZ BR BKN004
BECMG 2800/2803 4000 BR BKN002 PROB40
TEMPO 2800/2812 1200 DZ OVC001

Example: see airport list